sensor_id;sensor_type;location;lat;lon;timestamp;temperature;humidity
16485;DHT22;8353;47.856;12.344;2023-08-06T00:02:15;17.00;99.90
16485;DHT22;8353;47.856;12.344;2023-08-06T00:04:46;17.10;99.90
16485;DHT22;8353;47.856;12.344;2023-08-06T00:07:16;17.10;99.90
16485;DHT22;8353;47.856;12.344;2023-08-06T00:09:47;17.00;99.90
16485;DHT22;8353;47.856;12.344;2023-08-06T00:12:19;17.10;99.90
16485;DHT22;8353;47.856;12.344;2023-08-06T00:14:51;17.20;99.90
16485;DHT22;8353;47.856;12.344;2023-08-06T00:17:21;17.30;99.90
16485;DHT22;8353;47.856;12.344;2023-08-06T00:19:52;17.30;99.90
16485;DHT22;8353;47.856;12.344;2023-08-06T00:22:22;17.30;99.90
16485;DHT22;8353;47.856;12.344;2023-08-06T00:24:53;17.40;99.90
16485;DHT22;8353;47.856;12.344;2023-08-06T00:27:28;17.40;99.90
16485;DHT22;8353;47.856;12.344;2023-08-06T00:29:58;17.50;99.90
16485;DHT22;8353;47.856;12.344;2023-08-06T00:32:28;17.40;99.90
16485;DHT22;8353;47.856;12.344;2023-08-06T00:34:59;17.60;99.90
16485;DHT22;8353;47.856;12.344;2023-08-06T00:37:29;17.40;99.90
16485;DHT22;8353;47.856;12.344;2023-08-06T00:40:00;17.30;99.90
16485;DHT22;8353;47.856;12.344;2023-08-06T00:42:33;17.20;99.90
16485;DHT22;8353;47.856;12.344;2023-08-06T00:45:04;17.10;99.90
16485;DHT22;8353;47.856;12.344;2023-08-06T00:47:35;17.00;99.90
16485;DHT22;8353;47.856;12.344;2023-08-06T00:50:06;17.10;99.90
16485;DHT22;8353;47.856;12.344;2023-08-06T00:52:37;17.20;99.90
16485;DHT22;8353;47.856;12.344;2023-08-06T00:55:08;17.30;99.90
16485;DHT22;8353;47.856;12.344;2023-08-06T00:57:41;17.40;99.90
16485;DHT22;8353;47.856;12.344;2023-08-06T01:00:12;17.50;99.90
16485;DHT22;8353;47.856;12.344;2023-08-06T01:02:43;17.60;99.90
16485;DHT22;8353;47.856;12.344;2023-08-06T01:05:14;17.60;99.90
16485;DHT22;8353;47.856;12.344;2023-08-06T01:07:50;17.70;99.90
16485;DHT22;8353;47.856;12.344;2023-08-06T01:10:33;17.70;99.90
16485;DHT22;8353;47.856;12.344;2023-08-06T01:13:17;17.60;99.90
16485;DHT22;8353;47.856;12.344;2023-08-06T01:15:50;17.60;99.90
16485;DHT22;8353;47.856;12.344;2023-08-06T01:18:23;17.60;99.90
16485;DHT22;8353;47.856;12.344;2023-08-06T01:20:55;17.60;99.90
16485;DHT22;8353;47.856;12.344;2023-08-06T01:23:26;17.50;99.90
16485;DHT22;8353;47.856;12.344;2023-08-06T01:26:02;17.40;99.90
16485;DHT22;8353;47.856;12.344;2023-08-06T01:28:40;17.40;99.90
16485;DHT22;8353;47.856;12.344;2023-08-06T01:31:18;17.40;99.90
16485;DHT22;8353;47.856;12.344;2023-08-06T01:33:51;17.30;99.90
16485;DHT22;8353;47.856;12.344;2023-08-06T01:36:26;17.30;99.90
16485;DHT22;8353;47.856;12.344;2023-08-06T01:38:57;16.90;99.90
16485;DHT22;8353;47.856;12.344;2023-08-06T01:41:27;16.80;99.90
16485;DHT22;8353;47.856;12.344;2023-08-06T01:43:58;16.80;99.90
16485;DHT22;8353;47.856;12.344;2023-08-06T01:46:29;16.70;99.90
16485;DHT22;8353;47.856;12.344;2023-08-06T01:48:59;16.60;99.90
16485;DHT22;8353;47.856;12.344;2023-08-06T01:51:31;16.70;99.90
16485;DHT22;8353;47.856;12.344;2023-08-06T01:54:02;16.60;99.90
16485;DHT22;8353;47.856;12.344;2023-08-06T01:56:32;16.60;99.90
16485;DHT22;8353;47.856;12.344;2023-08-06T01:59:02;16.40;99.90
16485;DHT22;8353;47.856;12.344;2023-08-06T02:01:33;16.40;99.90
16485;DHT22;8353;47.856;12.344;2023-08-06T02:04:04;16.40;99.90
16485;DHT22;8353;47.856;12.344;2023-08-06T02:06:36;16.30;99.90
16485;DHT22;8353;47.856;12.344;2023-08-06T02:09:07;16.30;99.90
16485;DHT22;8353;47.856;12.344;2023-08-06T02:11:37;16.30;99.90
16485;DHT22;8353;47.856;12.344;2023-08-06T02:14:09;16.20;99.90
16485;DHT22;8353;47.856;12.344;2023-08-06T02:16:39;16.20;99.90
16485;DHT22;8353;47.856;12.344;2023-08-06T02:19:10;16.10;99.90
16485;DHT22;8353;47.856;12.344;2023-08-06T02:21:42;16.10;99.90
16485;DHT22;8353;47.856;12.344;2023-08-06T02:24:13;16.20;99.90
16485;DHT22;8353;47.856;12.344;2023-08-06T02:26:44;16.10;99.90
16485;DHT22;8353;47.856;12.344;2023-08-06T02:29:14;16.00;99.90
16485;DHT22;8353;47.856;12.344;2023-08-06T02:31:45;16.00;99.90
16485;DHT22;8353;47.856;12.344;2023-08-06T02:34:15;15.90;99.90
16485;DHT22;8353;47.856;12.344;2023-08-06T02:36:47;15.90;99.90
16485;DHT22;8353;47.856;12.344;2023-08-06T02:39:19;15.90;99.90
16485;DHT22;8353;47.856;12.344;2023-08-06T02:41:49;15.90;99.90
16485;DHT22;8353;47.856;12.344;2023-08-06T02:44:19;15.90;99.90
16485;DHT22;8353;47.856;12.344;2023-08-06T02:46:50;15.90;99.90
16485;DHT22;8353;47.856;12.344;2023-08-06T02:49:21;15.90;99.90
16485;DHT22;8353;47.856;12.344;2023-08-06T02:51:53;15.90;99.90
16485;DHT22;8353;47.856;12.344;2023-08-06T02:54:25;15.90;99.90
16485;DHT22;8353;47.856;12.344;2023-08-06T02:56:55;15.90;99.90
16485;DHT22;8353;47.856;12.344;2023-08-06T02:59:25;15.90;99.90
16485;DHT22;8353;47.856;12.344;2023-08-06T03:01:56;16.00;99.90
16485;DHT22;8353;47.856;12.344;2023-08-06T03:04:26;16.00;99.90
16485;DHT22;8353;47.856;12.344;2023-08-06T03:06:58;16.00;99.90
16485;DHT22;8353;47.856;12.344;2023-08-06T03:09:29;15.90;99.90
16485;DHT22;8353;47.856;12.344;2023-08-06T03:11:59;15.90;99.90
16485;DHT22;8353;47.856;12.344;2023-08-06T03:14:30;15.80;99.90
16485;DHT22;8353;47.856;12.344;2023-08-06T03:17:00;15.70;99.90
16485;DHT22;8353;47.856;12.344;2023-08-06T03:19:31;15.70;99.90
16485;DHT22;8353;47.856;12.344;2023-08-06T03:22:04;15.80;99.90
16485;DHT22;8353;47.856;12.344;2023-08-06T03:24:35;15.70;99.90
16485;DHT22;8353;47.856;12.344;2023-08-06T03:27:06;15.70;99.90
16485;DHT22;8353;47.856;12.344;2023-08-06T03:29:36;15.70;99.90
16485;DHT22;8353;47.856;12.344;2023-08-06T03:32:08;15.80;99.90
16485;DHT22;8353;47.856;12.344;2023-08-06T03:34:38;15.80;99.90
16485;DHT22;8353;47.856;12.344;2023-08-06T03:37:10;15.80;99.90
16485;DHT22;8353;47.856;12.344;2023-08-06T03:39:40;15.80;99.90
16485;DHT22;8353;47.856;12.344;2023-08-06T03:42:11;15.80;99.90
16485;DHT22;8353;47.856;12.344;2023-08-06T03:44:42;15.80;99.90
16485;DHT22;8353;47.856;12.344;2023-08-06T03:47:13;15.90;99.90
16485;DHT22;8353;47.856;12.344;2023-08-06T03:49:44;15.90;99.90
16485;DHT22;8353;47.856;12.344;2023-08-06T03:52:16;15.80;99.90
16485;DHT22;8353;47.856;12.344;2023-08-06T03:54:47;15.80;99.90
16485;DHT22;8353;47.856;12.344;2023-08-06T03:57:17;15.80;99.90
16485;DHT22;8353;47.856;12.344;2023-08-06T03:59:48;15.80;99.90
16485;DHT22;8353;47.856;12.344;2023-08-06T04:02:19;15.70;99.90
16485;DHT22;8353;47.856;12.344;2023-08-06T04:04:51;15.70;99.90
16485;DHT22;8353;47.856;12.344;2023-08-06T04:07:24;15.70;99.90
16485;DHT22;8353;47.856;12.344;2023-08-06T04:09:57;15.70;99.90
16485;DHT22;8353;47.856;12.344;2023-08-06T04:12:29;15.70;99.90
16485;DHT22;8353;47.856;12.344;2023-08-06T04:15:00;15.70;99.90
16485;DHT22;8353;47.856;12.344;2023-08-06T04:17:32;15.60;99.90
16485;DHT22;8353;47.856;12.344;2023-08-06T04:20:04;15.70;99.90
16485;DHT22;8353;47.856;12.344;2023-08-06T04:22:36;15.80;99.90
16485;DHT22;8353;47.856;12.344;2023-08-06T04:25:07;15.90;99.90
16485;DHT22;8353;47.856;12.344;2023-08-06T04:27:38;16.00;99.90
16485;DHT22;8353;47.856;12.344;2023-08-06T04:30:11;16.10;99.90
16485;DHT22;8353;47.856;12.344;2023-08-06T04:32:41;16.10;99.90
16485;DHT22;8353;47.856;12.344;2023-08-06T04:35:12;16.20;99.90
16485;DHT22;8353;47.856;12.344;2023-08-06T04:37:44;16.30;99.90
16485;DHT22;8353;47.856;12.344;2023-08-06T04:40:15;16.40;99.90
16485;DHT22;8353;47.856;12.344;2023-08-06T04:42:46;16.30;99.90
16485;DHT22;8353;47.856;12.344;2023-08-06T04:45:17;16.20;99.90
16485;DHT22;8353;47.856;12.344;2023-08-06T04:47:47;16.40;99.90
16485;DHT22;8353;47.856;12.344;2023-08-06T04:50:18;16.20;99.90
16485;DHT22;8353;47.856;12.344;2023-08-06T04:52:50;16.20;99.90
16485;DHT22;8353;47.856;12.344;2023-08-06T04:55:21;16.30;99.90
16485;DHT22;8353;47.856;12.344;2023-08-06T04:57:52;16.20;99.90
16485;DHT22;8353;47.856;12.344;2023-08-06T05:00:22;16.30;99.90
16485;DHT22;8353;47.856;12.344;2023-08-06T05:02:53;16.30;99.90
16485;DHT22;8353;47.856;12.344;2023-08-06T05:05:23;16.40;99.90
16485;DHT22;8353;47.856;12.344;2023-08-06T05:07:58;16.30;99.90
16485;DHT22;8353;47.856;12.344;2023-08-06T05:10:29;16.40;99.90
16485;DHT22;8353;47.856;12.344;2023-08-06T05:12:59;16.30;99.90
16485;DHT22;8353;47.856;12.344;2023-08-06T05:15:30;16.40;99.90
16485;DHT22;8353;47.856;12.344;2023-08-06T05:18:01;16.40;99.90
16485;DHT22;8353;47.856;12.344;2023-08-06T05:20:36;16.30;99.90
16485;DHT22;8353;47.856;12.344;2023-08-06T05:23:08;16.30;99.90
16485;DHT22;8353;47.856;12.344;2023-08-06T05:25:39;16.20;99.90
16485;DHT22;8353;47.856;12.344;2023-08-06T05:28:10;16.10;99.90
16485;DHT22;8353;47.856;12.344;2023-08-06T05:30:41;16.10;99.90
16485;DHT22;8353;47.856;12.344;2023-08-06T05:33:12;16.20;99.90
16485;DHT22;8353;47.856;12.344;2023-08-06T05:35:42;16.10;99.90
16485;DHT22;8353;47.856;12.344;2023-08-06T05:38:14;16.20;99.90
16485;DHT22;8353;47.856;12.344;2023-08-06T05:40:44;16.30;99.90
16485;DHT22;8353;47.856;12.344;2023-08-06T05:43:15;16.30;99.90
16485;DHT22;8353;47.856;12.344;2023-08-06T05:45:45;16.30;99.90
16485;DHT22;8353;47.856;12.344;2023-08-06T05:48:16;16.30;99.90
16485;DHT22;8353;47.856;12.344;2023-08-06T05:50:47;16.40;99.90
16485;DHT22;8353;47.856;12.344;2023-08-06T05:53:19;16.50;99.90
16485;DHT22;8353;47.856;12.344;2023-08-06T05:55:50;16.60;99.90
16485;DHT22;8353;47.856;12.344;2023-08-06T05:58:20;16.80;99.90
16485;DHT22;8353;47.856;12.344;2023-08-06T06:00:51;16.80;99.90
16485;DHT22;8353;47.856;12.344;2023-08-06T06:03:22;16.80;99.90
16485;DHT22;8353;47.856;12.344;2023-08-06T06:05:53;16.80;99.90
16485;DHT22;8353;47.856;12.344;2023-08-06T06:08:24;16.70;99.90
16485;DHT22;8353;47.856;12.344;2023-08-06T06:10:55;16.90;99.90
16485;DHT22;8353;47.856;12.344;2023-08-06T06:13:25;16.80;99.90
16485;DHT22;8353;47.856;12.344;2023-08-06T06:15:56;16.90;99.90
16485;DHT22;8353;47.856;12.344;2023-08-06T06:18:27;16.90;99.90
16485;DHT22;8353;47.856;12.344;2023-08-06T06:20:58;16.90;99.90
16485;DHT22;8353;47.856;12.344;2023-08-06T06:23:30;17.00;99.90
16485;DHT22;8353;47.856;12.344;2023-08-06T06:26:01;16.90;99.90
16485;DHT22;8353;47.856;12.344;2023-08-06T06:28:31;16.90;99.90
16485;DHT22;8353;47.856;12.344;2023-08-06T06:31:02;16.90;99.90
16485;DHT22;8353;47.856;12.344;2023-08-06T06:33:33;16.90;99.90
16485;DHT22;8353;47.856;12.344;2023-08-06T06:36:04;17.00;99.90
16485;DHT22;8353;47.856;12.344;2023-08-06T06:38:38;17.00;99.90
16485;DHT22;8353;47.856;12.344;2023-08-06T06:41:09;17.00;99.90
16485;DHT22;8353;47.856;12.344;2023-08-06T06:43:42;17.00;99.90
16485;DHT22;8353;47.856;12.344;2023-08-06T06:46:13;17.00;99.90
16485;DHT22;8353;47.856;12.344;2023-08-06T06:48:44;16.80;99.90
16485;DHT22;8353;47.856;12.344;2023-08-06T06:51:14;17.00;99.90
16485;DHT22;8353;47.856;12.344;2023-08-06T06:53:46;17.00;99.90
16485;DHT22;8353;47.856;12.344;2023-08-06T06:56:17;17.00;99.90
16485;DHT22;8353;47.856;12.344;2023-08-06T06:58:48;17.10;99.90
16485;DHT22;8353;47.856;12.344;2023-08-06T07:01:18;17.00;99.90
16485;DHT22;8353;47.856;12.344;2023-08-06T07:03:49;17.00;99.90
16485;DHT22;8353;47.856;12.344;2023-08-06T07:06:20;16.90;99.90
16485;DHT22;8353;47.856;12.344;2023-08-06T07:08:52;17.20;99.90
16485;DHT22;8353;47.856;12.344;2023-08-06T07:11:23;17.10;99.90
16485;DHT22;8353;47.856;12.344;2023-08-06T07:13:56;17.10;99.90
16485;DHT22;8353;47.856;12.344;2023-08-06T07:16:27;17.10;99.90
16485;DHT22;8353;47.856;12.344;2023-08-06T07:18:58;17.00;99.90
16485;DHT22;8353;47.856;12.344;2023-08-06T07:21:29;17.00;99.90
16485;DHT22;8353;47.856;12.344;2023-08-06T07:24:01;17.10;99.90
16485;DHT22;8353;47.856;12.344;2023-08-06T07:26:32;17.20;99.90
16485;DHT22;8353;47.856;12.344;2023-08-06T07:29:04;17.10;99.90
16485;DHT22;8353;47.856;12.344;2023-08-06T07:31:39;17.10;99.90
16485;DHT22;8353;47.856;12.344;2023-08-06T07:34:10;17.20;99.90
16485;DHT22;8353;47.856;12.344;2023-08-06T07:36:40;17.20;99.90
16485;DHT22;8353;47.856;12.344;2023-08-06T07:39:14;17.30;99.90
16485;DHT22;8353;47.856;12.344;2023-08-06T07:41:46;17.40;99.90
16485;DHT22;8353;47.856;12.344;2023-08-06T07:44:17;17.50;99.90
16485;DHT22;8353;47.856;12.344;2023-08-06T07:46:48;17.50;99.90
16485;DHT22;8353;47.856;12.344;2023-08-06T07:49:19;17.60;99.90
16485;DHT22;8353;47.856;12.344;2023-08-06T07:51:51;17.70;99.90
16485;DHT22;8353;47.856;12.344;2023-08-06T07:54:23;17.80;99.90
16485;DHT22;8353;47.856;12.344;2023-08-06T07:56:54;17.80;99.90
16485;DHT22;8353;47.856;12.344;2023-08-06T07:59:25;17.80;99.90
16485;DHT22;8353;47.856;12.344;2023-08-06T08:01:56;17.70;99.90
16485;DHT22;8353;47.856;12.344;2023-08-06T08:04:27;17.90;99.90
16485;DHT22;8353;47.856;12.344;2023-08-06T08:06:58;17.90;99.90
16485;DHT22;8353;47.856;12.344;2023-08-06T08:09:30;17.90;99.90
16485;DHT22;8353;47.856;12.344;2023-08-06T08:12:01;17.90;99.90
16485;DHT22;8353;47.856;12.344;2023-08-06T08:14:32;17.90;99.90
16485;DHT22;8353;47.856;12.344;2023-08-06T08:17:05;17.70;99.90
16485;DHT22;8353;47.856;12.344;2023-08-06T08:19:36;17.80;99.90
16485;DHT22;8353;47.856;12.344;2023-08-06T08:22:07;17.80;99.90
16485;DHT22;8353;47.856;12.344;2023-08-06T08:24:38;17.80;99.90
16485;DHT22;8353;47.856;12.344;2023-08-06T08:27:09;17.70;99.90
16485;DHT22;8353;47.856;12.344;2023-08-06T08:29:40;17.70;99.90
16485;DHT22;8353;47.856;12.344;2023-08-06T08:32:11;17.80;99.90
16485;DHT22;8353;47.856;12.344;2023-08-06T08:34:42;17.70;99.90
16485;DHT22;8353;47.856;12.344;2023-08-06T08:37:13;17.70;99.90
16485;DHT22;8353;47.856;12.344;2023-08-06T08:39:45;17.60;99.90
16485;DHT22;8353;47.856;12.344;2023-08-06T08:42:16;17.60;99.90
16485;DHT22;8353;47.856;12.344;2023-08-06T08:44:47;17.50;99.90
16485;DHT22;8353;47.856;12.344;2023-08-06T08:47:18;17.40;99.90
16485;DHT22;8353;47.856;12.344;2023-08-06T08:49:49;17.50;99.90
16485;DHT22;8353;47.856;12.344;2023-08-06T08:52:20;17.50;99.90
16485;DHT22;8353;47.856;12.344;2023-08-06T08:54:53;17.60;99.90
16485;DHT22;8353;47.856;12.344;2023-08-06T08:57:24;17.60;99.90
16485;DHT22;8353;47.856;12.344;2023-08-06T08:59:55;17.60;99.90
16485;DHT22;8353;47.856;12.344;2023-08-06T09:02:28;17.70;99.90
16485;DHT22;8353;47.856;12.344;2023-08-06T09:05:00;17.70;99.90
16485;DHT22;8353;47.856;12.344;2023-08-06T09:07:35;17.80;99.90
16485;DHT22;8353;47.856;12.344;2023-08-06T09:10:11;18.00;99.90
16485;DHT22;8353;47.856;12.344;2023-08-06T09:12:45;17.90;99.90
16485;DHT22;8353;47.856;12.344;2023-08-06T09:15:18;18.10;99.90
16485;DHT22;8353;47.856;12.344;2023-08-06T09:17:49;18.30;99.90
16485;DHT22;8353;47.856;12.344;2023-08-06T09:20:20;18.40;99.90
16485;DHT22;8353;47.856;12.344;2023-08-06T09:22:53;18.50;99.90
16485;DHT22;8353;47.856;12.344;2023-08-06T09:25:26;18.20;99.90
16485;DHT22;8353;47.856;12.344;2023-08-06T09:27:58;18.10;99.90
16485;DHT22;8353;47.856;12.344;2023-08-06T09:30:30;18.20;99.90
16485;DHT22;8353;47.856;12.344;2023-08-06T09:33:01;18.30;99.90
16485;DHT22;8353;47.856;12.344;2023-08-06T09:35:32;18.50;99.90
16485;DHT22;8353;47.856;12.344;2023-08-06T09:38:06;18.50;99.90
16485;DHT22;8353;47.856;12.344;2023-08-06T09:40:39;18.70;99.90
16485;DHT22;8353;47.856;12.344;2023-08-06T09:43:11;18.80;99.90
16485;DHT22;8353;47.856;12.344;2023-08-06T09:45:43;18.90;99.90
16485;DHT22;8353;47.856;12.344;2023-08-06T09:48:14;18.90;99.90
16485;DHT22;8353;47.856;12.344;2023-08-06T09:50:47;18.70;99.90
16485;DHT22;8353;47.856;12.344;2023-08-06T09:53:18;18.60;99.90
16485;DHT22;8353;47.856;12.344;2023-08-06T09:55:50;18.50;99.90
16485;DHT22;8353;47.856;12.344;2023-08-06T09:58:21;18.50;99.90
16485;DHT22;8353;47.856;12.344;2023-08-06T10:00:53;18.40;99.90
16485;DHT22;8353;47.856;12.344;2023-08-06T10:03:24;18.30;99.90
16485;DHT22;8353;47.856;12.344;2023-08-06T10:05:55;18.30;99.90
16485;DHT22;8353;47.856;12.344;2023-08-06T10:08:26;18.50;99.90
16485;DHT22;8353;47.856;12.344;2023-08-06T10:10:58;18.30;99.90
16485;DHT22;8353;47.856;12.344;2023-08-06T10:13:30;18.20;99.90
16485;DHT22;8353;47.856;12.344;2023-08-06T10:16:02;18.30;99.90
16485;DHT22;8353;47.856;12.344;2023-08-06T10:18:36;18.30;99.90
16485;DHT22;8353;47.856;12.344;2023-08-06T10:21:08;18.30;99.90
16485;DHT22;8353;47.856;12.344;2023-08-06T10:23:40;18.20;99.90
16485;DHT22;8353;47.856;12.344;2023-08-06T10:26:12;18.30;99.90
16485;DHT22;8353;47.856;12.344;2023-08-06T10:28:46;18.50;99.90
16485;DHT22;8353;47.856;12.344;2023-08-06T10:31:19;18.70;99.90
16485;DHT22;8353;47.856;12.344;2023-08-06T10:33:49;18.60;99.90
16485;DHT22;8353;47.856;12.344;2023-08-06T10:36:20;18.60;99.90
16485;DHT22;8353;47.856;12.344;2023-08-06T10:38:51;18.70;99.90
16485;DHT22;8353;47.856;12.344;2023-08-06T10:41:29;18.80;99.90
16485;DHT22;8353;47.856;12.344;2023-08-06T10:44:07;18.80;99.90
16485;DHT22;8353;47.856;12.344;2023-08-06T10:46:38;18.80;99.90
16485;DHT22;8353;47.856;12.344;2023-08-06T10:49:11;19.00;99.90
16485;DHT22;8353;47.856;12.344;2023-08-06T10:51:43;19.10;99.90
16485;DHT22;8353;47.856;12.344;2023-08-06T10:54:14;19.30;99.90
16485;DHT22;8353;47.856;12.344;2023-08-06T10:56:46;19.30;99.90
16485;DHT22;8353;47.856;12.344;2023-08-06T10:59:17;19.30;99.90
16485;DHT22;8353;47.856;12.344;2023-08-06T11:01:48;19.20;99.90
16485;DHT22;8353;47.856;12.344;2023-08-06T11:04:21;19.20;99.90
16485;DHT22;8353;47.856;12.344;2023-08-06T11:06:52;19.20;99.90
16485;DHT22;8353;47.856;12.344;2023-08-06T11:09:24;19.20;99.90
16485;DHT22;8353;47.856;12.344;2023-08-06T11:11:57;19.20;99.90
16485;DHT22;8353;47.856;12.344;2023-08-06T11:14:30;19.20;99.90
16485;DHT22;8353;47.856;12.344;2023-08-06T11:17:01;19.20;99.90
16485;DHT22;8353;47.856;12.344;2023-08-06T11:19:32;19.10;99.90
16485;DHT22;8353;47.856;12.344;2023-08-06T11:22:04;19.10;99.90
16485;DHT22;8353;47.856;12.344;2023-08-06T11:24:37;19.00;99.90
16485;DHT22;8353;47.856;12.344;2023-08-06T11:27:13;18.80;99.90
16485;DHT22;8353;47.856;12.344;2023-08-06T11:29:43;18.60;99.90
16485;DHT22;8353;47.856;12.344;2023-08-06T11:32:14;18.50;99.90
16485;DHT22;8353;47.856;12.344;2023-08-06T11:34:44;18.60;99.90
16485;DHT22;8353;47.856;12.344;2023-08-06T11:37:15;18.40;99.90
16485;DHT22;8353;47.856;12.344;2023-08-06T11:39:49;18.40;99.90
16485;DHT22;8353;47.856;12.344;2023-08-06T11:42:23;18.30;99.90
16485;DHT22;8353;47.856;12.344;2023-08-06T11:44:56;18.30;99.90
16485;DHT22;8353;47.856;12.344;2023-08-06T11:47:27;18.20;99.90
16485;DHT22;8353;47.856;12.344;2023-08-06T11:49:57;18.30;99.90
16485;DHT22;8353;47.856;12.344;2023-08-06T11:52:28;18.20;99.90
16485;DHT22;8353;47.856;12.344;2023-08-06T11:55:04;18.10;99.90
16485;DHT22;8353;47.856;12.344;2023-08-06T11:57:37;18.00;99.90
16485;DHT22;8353;47.856;12.344;2023-08-06T12:00:11;18.10;99.90
16485;DHT22;8353;47.856;12.344;2023-08-06T12:02:43;18.00;99.90
16485;DHT22;8353;47.856;12.344;2023-08-06T12:05:15;18.10;99.90
16485;DHT22;8353;47.856;12.344;2023-08-06T12:07:47;18.10;99.90
16485;DHT22;8353;47.856;12.344;2023-08-06T12:10:19;17.80;99.90
16485;DHT22;8353;47.856;12.344;2023-08-06T12:12:54;17.70;99.90
16485;DHT22;8353;47.856;12.344;2023-08-06T12:15:25;17.80;99.90
16485;DHT22;8353;47.856;12.344;2023-08-06T12:17:57;17.60;99.90
16485;DHT22;8353;47.856;12.344;2023-08-06T12:20:27;17.50;99.90
16485;DHT22;8353;47.856;12.344;2023-08-06T12:22:58;17.60;99.90
16485;DHT22;8353;47.856;12.344;2023-08-06T12:25:31;17.60;99.90
16485;DHT22;8353;47.856;12.344;2023-08-06T12:28:04;17.60;99.90
16485;DHT22;8353;47.856;12.344;2023-08-06T12:30:36;17.60;99.90
16485;DHT22;8353;47.856;12.344;2023-08-06T12:33:07;17.60;99.90
16485;DHT22;8353;47.856;12.344;2023-08-06T12:35:44;17.70;99.90
16485;DHT22;8353;47.856;12.344;2023-08-06T12:38:16;17.70;99.90
16485;DHT22;8353;47.856;12.344;2023-08-06T12:40:46;17.80;99.90
16485;DHT22;8353;47.856;12.344;2023-08-06T12:43:20;17.90;99.90
16485;DHT22;8353;47.856;12.344;2023-08-06T12:45:52;18.10;99.90
16485;DHT22;8353;47.856;12.344;2023-08-06T12:48:22;18.40;99.90
16485;DHT22;8353;47.856;12.344;2023-08-06T12:50:53;18.50;99.90
16485;DHT22;8353;47.856;12.344;2023-08-06T12:53:24;18.60;99.90
16485;DHT22;8353;47.856;12.344;2023-08-06T12:55:55;18.80;99.90
16485;DHT22;8353;47.856;12.344;2023-08-06T12:58:27;19.00;99.90
16485;DHT22;8353;47.856;12.344;2023-08-06T13:00:59;18.70;99.90
16485;DHT22;8353;47.856;12.344;2023-08-06T13:03:30;18.70;99.90
16485;DHT22;8353;47.856;12.344;2023-08-06T13:06:03;18.60;99.90
16485;DHT22;8353;47.856;12.344;2023-08-06T13:08:34;18.60;99.90
16485;DHT22;8353;47.856;12.344;2023-08-06T13:11:04;18.70;99.90
16485;DHT22;8353;47.856;12.344;2023-08-06T13:13:36;18.60;99.90
16485;DHT22;8353;47.856;12.344;2023-08-06T13:16:07;18.70;99.90
16485;DHT22;8353;47.856;12.344;2023-08-06T13:18:37;18.30;99.90
16485;DHT22;8353;47.856;12.344;2023-08-06T13:21:08;18.40;99.90
16485;DHT22;8353;47.856;12.344;2023-08-06T13:23:39;18.40;99.90
16485;DHT22;8353;47.856;12.344;2023-08-06T13:26:09;18.30;99.90
16485;DHT22;8353;47.856;12.344;2023-08-06T13:28:41;18.30;99.90
16485;DHT22;8353;47.856;12.344;2023-08-06T13:31:12;18.30;99.90
16485;DHT22;8353;47.856;12.344;2023-08-06T13:33:43;18.30;99.90
16485;DHT22;8353;47.856;12.344;2023-08-06T13:36:13;18.10;99.90
16485;DHT22;8353;47.856;12.344;2023-08-06T13:38:44;18.10;99.90
16485;DHT22;8353;47.856;12.344;2023-08-06T13:41:14;18.10;99.90
16485;DHT22;8353;47.856;12.344;2023-08-06T13:43:46;18.20;99.90
16485;DHT22;8353;47.856;12.344;2023-08-06T13:46:18;18.10;99.90
16485;DHT22;8353;47.856;12.344;2023-08-06T13:48:48;17.90;99.90
16485;DHT22;8353;47.856;12.344;2023-08-06T13:51:20;18.00;99.90
16485;DHT22;8353;47.856;12.344;2023-08-06T13:53:50;17.90;99.90
16485;DHT22;8353;47.856;12.344;2023-08-06T13:56:21;17.80;99.90
16485;DHT22;8353;47.856;12.344;2023-08-06T13:58:53;17.70;99.90
16485;DHT22;8353;47.856;12.344;2023-08-06T14:01:23;17.80;99.90
16485;DHT22;8353;47.856;12.344;2023-08-06T14:03:54;17.60;99.90
16485;DHT22;8353;47.856;12.344;2023-08-06T14:06:24;17.80;99.90
16485;DHT22;8353;47.856;12.344;2023-08-06T14:08:56;17.80;99.90
16485;DHT22;8353;47.856;12.344;2023-08-06T14:11:27;17.80;99.90
16485;DHT22;8353;47.856;12.344;2023-08-06T14:13:59;17.90;99.90
16485;DHT22;8353;47.856;12.344;2023-08-06T14:16:29;17.80;99.90
16485;DHT22;8353;47.856;12.344;2023-08-06T14:19:00;17.70;99.90
16485;DHT22;8353;47.856;12.344;2023-08-06T14:21:30;17.80;99.90
16485;DHT22;8353;47.856;12.344;2023-08-06T14:24:01;17.80;99.90
16485;DHT22;8353;47.856;12.344;2023-08-06T14:26:32;17.50;99.90
16485;DHT22;8353;47.856;12.344;2023-08-06T14:29:04;17.30;99.90
16485;DHT22;8353;47.856;12.344;2023-08-06T14:31:35;17.20;99.90
16485;DHT22;8353;47.856;12.344;2023-08-06T14:34:05;17.10;99.90
16485;DHT22;8353;47.856;12.344;2023-08-06T14:36:35;17.00;99.90
16485;DHT22;8353;47.856;12.344;2023-08-06T14:39:06;16.90;99.90
16485;DHT22;8353;47.856;12.344;2023-08-06T14:41:37;16.80;99.90
16485;DHT22;8353;47.856;12.344;2023-08-06T14:44:09;16.70;99.90
16485;DHT22;8353;47.856;12.344;2023-08-06T14:46:40;16.70;99.90
16485;DHT22;8353;47.856;12.344;2023-08-06T14:49:11;16.70;99.90
16485;DHT22;8353;47.856;12.344;2023-08-06T14:51:41;16.70;99.90
16485;DHT22;8353;47.856;12.344;2023-08-06T14:54:12;16.60;99.90
16485;DHT22;8353;47.856;12.344;2023-08-06T14:56:42;16.60;99.90
16485;DHT22;8353;47.856;12.344;2023-08-06T14:59:14;16.70;99.90
16485;DHT22;8353;47.856;12.344;2023-08-06T15:01:46;16.70;99.90
16485;DHT22;8353;47.856;12.344;2023-08-06T15:04:16;16.80;99.90
16485;DHT22;8353;47.856;12.344;2023-08-06T15:06:47;16.60;99.90
16485;DHT22;8353;47.856;12.344;2023-08-06T15:09:18;16.60;99.90
16485;DHT22;8353;47.856;12.344;2023-08-06T15:11:51;16.50;99.90
16485;DHT22;8353;47.856;12.344;2023-08-06T15:14:22;16.50;99.90
16485;DHT22;8353;47.856;12.344;2023-08-06T15:16:53;16.40;99.90
16485;DHT22;8353;47.856;12.344;2023-08-06T15:19:26;16.40;99.90
16485;DHT22;8353;47.856;12.344;2023-08-06T15:21:56;16.30;99.90
16485;DHT22;8353;47.856;12.344;2023-08-06T15:24:27;16.30;99.90
16485;DHT22;8353;47.856;12.344;2023-08-06T15:26:58;16.40;99.90
16485;DHT22;8353;47.856;12.344;2023-08-06T15:29:30;16.40;99.90
16485;DHT22;8353;47.856;12.344;2023-08-06T15:32:00;16.50;99.90
16485;DHT22;8353;47.856;12.344;2023-08-06T15:34:34;16.50;99.90
16485;DHT22;8353;47.856;12.344;2023-08-06T15:37:05;16.60;99.90
16485;DHT22;8353;47.856;12.344;2023-08-06T15:39:36;16.60;99.90
16485;DHT22;8353;47.856;12.344;2023-08-06T15:42:07;16.50;99.90
16485;DHT22;8353;47.856;12.344;2023-08-06T15:44:38;16.40;99.90
16485;DHT22;8353;47.856;12.344;2023-08-06T15:47:09;16.40;99.90
16485;DHT22;8353;47.856;12.344;2023-08-06T15:49:40;16.30;99.90
16485;DHT22;8353;47.856;12.344;2023-08-06T15:52:11;16.20;99.90
16485;DHT22;8353;47.856;12.344;2023-08-06T15:54:41;16.10;99.90
16485;DHT22;8353;47.856;12.344;2023-08-06T15:57:12;15.90;99.90